sensor_id;sensor_type;location;lat;lon;timestamp;P1;durP1;ratioP1;P2;durP2;ratioP2
9176;SDS011;4623;54.310;10.112;2022-09-12T00:01:22;3.47;;;3.17;;
9176;SDS011;4623;54.310;10.112;2022-09-12T00:03:56;2.73;;;2.53;;
9176;SDS011;4623;54.310;10.112;2022-09-12T00:06:25;3.40;;;3.10;;
9176;SDS011;4623;54.310;10.112;2022-09-12T00:08:59;3.23;;;2.90;;
9176;SDS011;4623;54.310;10.112;2022-09-12T00:11:27;2.93;;;2.73;;
9176;SDS011;4623;54.310;10.112;2022-09-12T00:13:57;2.90;;;2.60;;
9176;SDS011;4623;54.310;10.112;2022-09-12T00:16:24;3.00;;;2.73;;
9176;SDS011;4623;54.310;10.112;2022-09-12T00:18:51;2.90;;;2.70;;
9176;SDS011;4623;54.310;10.112;2022-09-12T00:21:17;3.07;;;2.87;;
9176;SDS011;4623;54.310;10.112;2022-09-12T00:23:44;3.33;;;3.03;;
9176;SDS011;4623;54.310;10.112;2022-09-12T00:26:10;3.00;;;2.70;;
9176;SDS011;4623;54.310;10.112;2022-09-12T00:28:37;3.20;;;3.00;;
9176;SDS011;4623;54.310;10.112;2022-09-12T00:31:04;2.83;;;2.60;;
9176;SDS011;4623;54.310;10.112;2022-09-12T00:33:32;3.27;;;2.97;;
9176;SDS011;4623;54.310;10.112;2022-09-12T00:35:58;2.63;;;2.43;;
9176;SDS011;4623;54.310;10.112;2022-09-12T00:38:27;2.67;;;2.47;;
9176;SDS011;4623;54.310;10.112;2022-09-12T00:40:53;2.63;;;2.43;;
9176;SDS011;4623;54.310;10.112;2022-09-12T00:46:06;3.63;;;2.60;;
9176;SDS011;4623;54.310;10.112;2022-09-12T00:48:38;4.40;;;2.60;;
9176;SDS011;4623;54.310;10.112;2022-09-12T00:51:08;3.70;;;3.07;;
9176;SDS011;4623;54.310;10.112;2022-09-12T00:53:34;3.47;;;3.10;;
9176;SDS011;4623;54.310;10.112;2022-09-12T00:56:02;3.30;;;3.00;;
9176;SDS011;4623;54.310;10.112;2022-09-12T00:58:29;2.93;;;2.73;;
9176;SDS011;4623;54.310;10.112;2022-09-12T01:01:01;2.80;;;2.60;;
9176;SDS011;4623;54.310;10.112;2022-09-12T01:03:27;2.93;;;2.73;;
9176;SDS011;4623;54.310;10.112;2022-09-12T01:08:32;3.07;;;2.77;;
9176;SDS011;4623;54.310;10.112;2022-09-12T01:11:01;2.83;;;2.63;;
9176;SDS011;4623;54.310;10.112;2022-09-12T01:13:27;3.43;;;2.80;;
9176;SDS011;4623;54.310;10.112;2022-09-12T01:15:53;2.83;;;2.63;;
9176;SDS011;4623;54.310;10.112;2022-09-12T01:18:24;3.63;;;3.33;;
9176;SDS011;4623;54.310;10.112;2022-09-12T01:23:33;4.00;;;3.33;;
9176;SDS011;4623;54.310;10.112;2022-09-12T01:26:12;3.30;;;3.00;;
9176;SDS011;4623;54.310;10.112;2022-09-12T01:31:52;3.73;;;3.40;;
9176;SDS011;4623;54.310;10.112;2022-09-12T01:34:56;4.07;;;3.67;;
9176;SDS011;4623;54.310;10.112;2022-09-12T01:45:27;3.63;;;3.33;;
9176;SDS011;4623;54.310;10.112;2022-09-12T01:47:59;4.27;;;3.87;;
9176;SDS011;4623;54.310;10.112;2022-09-12T01:50:34;3.97;;;3.60;;
9176;SDS011;4623;54.310;10.112;2022-09-12T01:53:08;4.50;;;4.10;;
9176;SDS011;4623;54.310;10.112;2022-09-12T01:58:06;5.00;;;4.53;;
9176;SDS011;4623;54.310;10.112;2022-09-12T02:00:42;4.20;;;3.87;;
9176;SDS011;4623;54.310;10.112;2022-09-12T02:03:17;4.23;;;3.93;;
9176;SDS011;4623;54.310;10.112;2022-09-12T02:05:53;3.77;;;3.47;;
9176;SDS011;4623;54.310;10.112;2022-09-12T02:08:25;4.10;;;3.77;;
9176;SDS011;4623;54.310;10.112;2022-09-12T02:11:11;3.73;;;3.43;;
9176;SDS011;4623;54.310;10.112;2022-09-12T02:13:46;4.33;;;3.93;;
9176;SDS011;4623;54.310;10.112;2022-09-12T02:16:29;3.80;;;3.50;;
9176;SDS011;4623;54.310;10.112;2022-09-12T02:19:02;4.90;;;4.50;;
9176;SDS011;4623;54.310;10.112;2022-09-12T02:21:35;4.60;;;4.20;;
9176;SDS011;4623;54.310;10.112;2022-09-12T02:24:04;5.03;;;4.63;;
9176;SDS011;4623;54.310;10.112;2022-09-12T02:26:34;5.00;;;4.50;;
9176;SDS011;4623;54.310;10.112;2022-09-12T02:29:13;4.70;;;4.33;;
9176;SDS011;4623;54.310;10.112;2022-09-12T02:31:44;7.07;;;4.60;;
9176;SDS011;4623;54.310;10.112;2022-09-12T02:34:31;4.77;;;4.37;;
9176;SDS011;4623;54.310;10.112;2022-09-12T02:39:56;5.33;;;4.93;;
9176;SDS011;4623;54.310;10.112;2022-09-12T02:42:23;5.03;;;4.57;;
9176;SDS011;4623;54.310;10.112;2022-09-12T02:44:50;4.70;;;4.30;;
9176;SDS011;4623;54.310;10.112;2022-09-12T02:47:28;5.23;;;4.73;;
9176;SDS011;4623;54.310;10.112;2022-09-12T02:50:02;4.50;;;4.17;;
9176;SDS011;4623;54.310;10.112;2022-09-12T02:52:32;4.87;;;4.47;;
9176;SDS011;4623;54.310;10.112;2022-09-12T02:54:58;5.10;;;4.60;;
9176;SDS011;4623;54.310;10.112;2022-09-12T02:57:24;5.20;;;4.80;;
9176;SDS011;4623;54.310;10.112;2022-09-12T02:59:51;5.27;;;4.87;;
9176;SDS011;4623;54.310;10.112;2022-09-12T03:02:28;5.30;;;4.80;;
9176;SDS011;4623;54.310;10.112;2022-09-12T03:05:34;5.50;;;5.03;;
9176;SDS011;4623;54.310;10.112;2022-09-12T03:08:22;5.97;;;5.03;;
9176;SDS011;4623;54.310;10.112;2022-09-12T03:14:16;4.83;;;4.43;;
9176;SDS011;4623;54.310;10.112;2022-09-12T03:17:22;5.97;;;4.47;;
9176;SDS011;4623;54.310;10.112;2022-09-12T03:22:56;5.33;;;4.83;;
9176;SDS011;4623;54.310;10.112;2022-09-12T03:25:27;5.63;;;5.13;;
9176;SDS011;4623;54.310;10.112;2022-09-12T03:27:57;5.03;;;4.63;;
9176;SDS011;4623;54.310;10.112;2022-09-12T03:30:25;5.30;;;4.80;;
9176;SDS011;4623;54.310;10.112;2022-09-12T03:32:51;5.50;;;5.00;;
9176;SDS011;4623;54.310;10.112;2022-09-12T03:35:20;4.53;;;4.23;;
9176;SDS011;4623;54.310;10.112;2022-09-12T03:37:47;5.67;;;5.17;;
9176;SDS011;4623;54.310;10.112;2022-09-12T03:40:13;4.67;;;4.27;;
9176;SDS011;4623;54.310;10.112;2022-09-12T03:42:40;5.27;;;4.87;;
9176;SDS011;4623;54.310;10.112;2022-09-12T03:45:07;5.63;;;4.70;;
9176;SDS011;4623;54.310;10.112;2022-09-12T03:47:33;5.47;;;4.97;;
9176;SDS011;4623;54.310;10.112;2022-09-12T03:49:59;5.13;;;4.73;;
9176;SDS011;4623;54.310;10.112;2022-09-12T03:52:25;4.93;;;4.53;;
9176;SDS011;4623;54.310;10.112;2022-09-12T03:54:51;5.50;;;5.10;;
9176;SDS011;4623;54.310;10.112;2022-09-12T03:57:16;5.40;;;5.00;;
9176;SDS011;4623;54.310;10.112;2022-09-12T03:59:42;6.07;;;5.47;;
9176;SDS011;4623;54.310;10.112;2022-09-12T04:02:08;5.33;;;4.83;;
9176;SDS011;4623;54.310;10.112;2022-09-12T04:04:36;5.33;;;4.83;;
9176;SDS011;4623;54.310;10.112;2022-09-12T04:07:02;5.10;;;4.70;;
9176;SDS011;4623;54.310;10.112;2022-09-12T04:09:28;5.27;;;4.77;;
9176;SDS011;4623;54.310;10.112;2022-09-12T04:11:54;5.27;;;4.87;;
9176;SDS011;4623;54.310;10.112;2022-09-12T04:14:19;5.10;;;4.60;;
9176;SDS011;4623;54.310;10.112;2022-09-12T04:16:45;5.50;;;5.00;;
9176;SDS011;4623;54.310;10.112;2022-09-12T04:19:10;5.13;;;4.60;;
9176;SDS011;4623;54.310;10.112;2022-09-12T04:21:36;5.47;;;5.07;;
9176;SDS011;4623;54.310;10.112;2022-09-12T04:24:03;5.57;;;5.17;;
9176;SDS011;4623;54.310;10.112;2022-09-12T04:26:29;5.87;;;5.27;;
9176;SDS011;4623;54.310;10.112;2022-09-12T04:28:55;4.80;;;4.33;;
9176;SDS011;4623;54.310;10.112;2022-09-12T04:31:21;6.00;;;5.40;;
9176;SDS011;4623;54.310;10.112;2022-09-12T04:33:57;5.30;;;4.80;;
9176;SDS011;4623;54.310;10.112;2022-09-12T04:36:25;5.63;;;5.13;;
9176;SDS011;4623;54.310;10.112;2022-09-12T04:38:51;4.53;;;4.13;;
9176;SDS011;4623;54.310;10.112;2022-09-12T04:41:19;5.73;;;5.23;;
9176;SDS011;4623;54.310;10.112;2022-09-12T04:43:50;4.87;;;4.37;;
9176;SDS011;4623;54.310;10.112;2022-09-12T04:46:17;4.70;;;4.30;;
9176;SDS011;4623;54.310;10.112;2022-09-12T04:48:44;6.67;;;5.97;;
9176;SDS011;4623;54.310;10.112;2022-09-12T04:51:14;5.60;;;5.10;;
9176;SDS011;4623;54.310;10.112;2022-09-12T04:53:41;5.53;;;5.13;;
9176;SDS011;4623;54.310;10.112;2022-09-12T04:56:08;6.10;;;5.60;;
9176;SDS011;4623;54.310;10.112;2022-09-12T04:58:36;5.80;;;5.13;;
9176;SDS011;4623;54.310;10.112;2022-09-12T05:01:06;6.27;;;5.77;;
9176;SDS011;4623;54.310;10.112;2022-09-12T05:03:33;5.73;;;5.27;;
9176;SDS011;4623;54.310;10.112;2022-09-12T05:06:01;5.83;;;5.33;;
9176;SDS011;4623;54.310;10.112;2022-09-12T05:08:27;6.60;;;5.77;;
9176;SDS011;4623;54.310;10.112;2022-09-12T05:10:53;5.20;;;4.80;;
9176;SDS011;4623;54.310;10.112;2022-09-12T05:13:19;5.33;;;4.90;;
9176;SDS011;4623;54.310;10.112;2022-09-12T05:15:55;5.73;;;5.23;;
9176;SDS011;4623;54.310;10.112;2022-09-12T05:18:21;5.13;;;4.73;;
9176;SDS011;4623;54.310;10.112;2022-09-12T05:20:47;5.27;;;4.77;;
9176;SDS011;4623;54.310;10.112;2022-09-12T05:23:13;6.37;;;5.87;;
9176;SDS011;4623;54.310;10.112;2022-09-12T05:25:38;5.27;;;4.87;;
9176;SDS011;4623;54.310;10.112;2022-09-12T05:28:04;5.23;;;4.77;;
9176;SDS011;4623;54.310;10.112;2022-09-12T05:30:29;5.20;;;4.80;;
9176;SDS011;4623;54.310;10.112;2022-09-12T05:32:55;6.13;;;4.30;;
9176;SDS011;4623;54.310;10.112;2022-09-12T05:35:21;6.90;;;5.33;;
9176;SDS011;4623;54.310;10.112;2022-09-12T05:37:46;5.83;;;4.70;;
9176;SDS011;4623;54.310;10.112;2022-09-12T05:40:12;5.00;;;4.50;;
9176;SDS011;4623;54.310;10.112;2022-09-12T05:42:41;6.77;;;4.63;;
9176;SDS011;4623;54.310;10.112;2022-09-12T05:45:07;7.77;;;5.00;;
9176;SDS011;4623;54.310;10.112;2022-09-12T05:47:33;7.03;;;4.77;;
9176;SDS011;4623;54.310;10.112;2022-09-12T05:49:58;4.83;;;4.43;;
9176;SDS011;4623;54.310;10.112;2022-09-12T05:52:24;5.47;;;4.97;;
9176;SDS011;4623;54.310;10.112;2022-09-12T05:54:50;6.07;;;5.47;;
9176;SDS011;4623;54.310;10.112;2022-09-12T05:57:16;8.00;;;5.87;;
9176;SDS011;4623;54.310;10.112;2022-09-12T05:59:42;5.50;;;5.00;;
9176;SDS011;4623;54.310;10.112;2022-09-12T06:02:09;6.13;;;5.53;;
9176;SDS011;4623;54.310;10.112;2022-09-12T06:04:35;6.13;;;5.63;;
9176;SDS011;4623;54.310;10.112;2022-09-12T06:07:00;6.17;;;5.60;;
9176;SDS011;4623;54.310;10.112;2022-09-12T06:09:26;5.47;;;4.97;;
9176;SDS011;4623;54.310;10.112;2022-09-12T06:11:52;10.30;;;4.73;;
9176;SDS011;4623;54.310;10.112;2022-09-12T06:14:17;5.97;;;4.70;;
9176;SDS011;4623;54.310;10.112;2022-09-12T06:16:43;4.93;;;4.53;;
9176;SDS011;4623;54.310;10.112;2022-09-12T06:19:16;5.00;;;4.60;;
9176;SDS011;4623;54.310;10.112;2022-09-12T06:21:46;8.10;;;5.57;;
9176;SDS011;4623;54.310;10.112;2022-09-12T06:24:13;5.73;;;4.70;;
9176;SDS011;4623;54.310;10.112;2022-09-12T06:26:40;4.80;;;4.40;;
9176;SDS011;4623;54.310;10.112;2022-09-12T06:29:06;5.67;;;4.53;;
9176;SDS011;4623;54.310;10.112;2022-09-12T06:31:33;4.63;;;4.23;;
9176;SDS011;4623;54.310;10.112;2022-09-12T06:34:00;10.00;;;4.87;;
9176;SDS011;4623;54.310;10.112;2022-09-12T06:36:33;6.97;;;4.53;;
9176;SDS011;4623;54.310;10.112;2022-09-12T06:39:03;10.40;;;4.97;;
9176;SDS011;4623;54.310;10.112;2022-09-12T06:41:40;5.13;;;4.37;;
9176;SDS011;4623;54.310;10.112;2022-09-12T06:44:06;7.43;;;5.03;;
9176;SDS011;4623;54.310;10.112;2022-09-12T06:46:32;5.00;;;4.60;;
9176;SDS011;4623;54.310;10.112;2022-09-12T06:48:58;6.90;;;4.93;;
9176;SDS011;4623;54.310;10.112;2022-09-12T06:51:24;4.60;;;4.20;;
9176;SDS011;4623;54.310;10.112;2022-09-12T06:53:53;4.00;;;3.63;;
9176;SDS011;4623;54.310;10.112;2022-09-12T06:56:20;3.60;;;3.30;;
9176;SDS011;4623;54.310;10.112;2022-09-12T06:58:48;2.93;;;2.73;;
9176;SDS011;4623;54.310;10.112;2022-09-12T07:01:15;3.10;;;2.90;;
9176;SDS011;4623;54.310;10.112;2022-09-12T07:03:47;3.17;;;2.87;;
9176;SDS011;4623;54.310;10.112;2022-09-12T07:06:17;3.93;;;2.87;;
9176;SDS011;4623;54.310;10.112;2022-09-12T07:08:45;2.70;;;2.50;;
9176;SDS011;4623;54.310;10.112;2022-09-12T07:11:21;3.00;;;2.80;;
9176;SDS011;4623;54.310;10.112;2022-09-12T07:13:48;2.67;;;2.47;;
9176;SDS011;4623;54.310;10.112;2022-09-12T07:16:16;3.77;;;3.47;;
9176;SDS011;4623;54.310;10.112;2022-09-12T07:18:42;4.70;;;3.27;;
9176;SDS011;4623;54.310;10.112;2022-09-12T07:21:11;2.70;;;2.50;;
9176;SDS011;4623;54.310;10.112;2022-09-12T07:23:37;2.47;;;2.27;;
9176;SDS011;4623;54.310;10.112;2022-09-12T07:26:04;3.07;;;2.80;;
9176;SDS011;4623;54.310;10.112;2022-09-12T07:28:31;3.23;;;2.93;;
9176;SDS011;4623;54.310;10.112;2022-09-12T07:30:57;3.20;;;2.70;;
9176;SDS011;4623;54.310;10.112;2022-09-12T07:33:28;2.60;;;2.40;;
9176;SDS011;4623;54.310;10.112;2022-09-12T07:35:54;2.63;;;2.40;;
9176;SDS011;4623;54.310;10.112;2022-09-12T07:38:20;2.50;;;2.23;;
9176;SDS011;4623;54.310;10.112;2022-09-12T07:40:46;3.13;;;2.60;;
9176;SDS011;4623;54.310;10.112;2022-09-12T07:43:11;3.63;;;2.50;;
9176;SDS011;4623;54.310;10.112;2022-09-12T07:45:37;2.90;;;2.20;;
9176;SDS011;4623;54.310;10.112;2022-09-12T07:48:05;2.73;;;2.20;;
9176;SDS011;4623;54.310;10.112;2022-09-12T07:50:31;2.70;;;2.47;;
9176;SDS011;4623;54.310;10.112;2022-09-12T07:52:57;2.97;;;2.70;;
9176;SDS011;4623;54.310;10.112;2022-09-12T07:55:23;3.10;;;2.80;;
9176;SDS011;4623;54.310;10.112;2022-09-12T07:57:50;4.10;;;2.43;;
9176;SDS011;4623;54.310;10.112;2022-09-12T08:00:16;2.37;;;2.17;;
9176;SDS011;4623;54.310;10.112;2022-09-12T08:02:42;2.73;;;2.53;;
9176;SDS011;4623;54.310;10.112;2022-09-12T08:05:08;3.70;;;3.40;;
9176;SDS011;4623;54.310;10.112;2022-09-12T08:07:34;3.00;;;2.80;;
9176;SDS011;4623;54.310;10.112;2022-09-12T08:10:00;2.60;;;2.40;;
9176;SDS011;4623;54.310;10.112;2022-09-12T08:12:26;2.90;;;2.70;;
9176;SDS011;4623;54.310;10.112;2022-09-12T08:14:53;3.20;;;2.77;;
9176;SDS011;4623;54.310;10.112;2022-09-12T08:17:18;2.47;;;2.27;;
9176;SDS011;4623;54.310;10.112;2022-09-12T08:19:44;3.57;;;2.03;;
9176;SDS011;4623;54.310;10.112;2022-09-12T08:22:10;3.97;;;2.60;;
9176;SDS011;4623;54.310;10.112;2022-09-12T08:24:36;2.80;;;2.27;;
9176;SDS011;4623;54.310;10.112;2022-09-12T08:27:03;2.33;;;1.97;;
9176;SDS011;4623;54.310;10.112;2022-09-12T08:29:29;3.10;;;2.03;;
9176;SDS011;4623;54.310;10.112;2022-09-12T08:31:55;2.57;;;2.37;;
9176;SDS011;4623;54.310;10.112;2022-09-12T08:34:21;5.80;;;2.40;;
9176;SDS011;4623;54.310;10.112;2022-09-12T08:36:46;2.72;;;2.45;;
9176;SDS011;4623;54.310;10.112;2022-09-12T08:39:15;5.75;;;2.78;;
9176;SDS011;4623;54.310;10.112;2022-09-12T08:41:42;3.67;;;2.22;;
9176;SDS011;4623;54.310;10.112;2022-09-12T08:52:21;2.85;;;2.17;;
9176;SDS011;4623;54.310;10.112;2022-09-12T08:54:51;2.28;;;1.98;;
9176;SDS011;4623;54.310;10.112;2022-09-12T08:57:19;2.30;;;2.10;;
9176;SDS011;4623;54.310;10.112;2022-09-12T08:59:45;3.13;;;2.22;;
9176;SDS011;4623;54.310;10.112;2022-09-12T09:02:30;2.00;;;1.90;;
9176;SDS011;4623;54.310;10.112;2022-09-12T09:17:02;2.22;;;1.90;;
9176;SDS011;4623;54.310;10.112;2022-09-12T09:19:37;5.63;;;2.10;;
9176;SDS011;4623;54.310;10.112;2022-09-12T09:22:13;3.63;;;2.03;;
9176;SDS011;4623;54.310;10.112;2022-09-12T09:24:57;2.28;;;1.75;;
9176;SDS011;4623;54.310;10.112;2022-09-12T09:27:28;2.25;;;1.70;;
9176;SDS011;4623;54.310;10.112;2022-09-12T09:30:02;2.00;;;1.77;;
9176;SDS011;4623;54.310;10.112;2022-09-12T09:32:32;1.50;;;1.40;;
9176;SDS011;4623;54.310;10.112;2022-09-12T09:35:15;1.60;;;1.50;;
9176;SDS011;4623;54.310;10.112;2022-09-12T09:38:27;3.40;;;1.98;;
9176;SDS011;4623;54.310;10.112;2022-09-12T09:45:44;1.92;;;1.73;;
9176;SDS011;4623;54.310;10.112;2022-09-12T09:50:44;2.47;;;1.90;;
9176;SDS011;4623;54.310;10.112;2022-09-12T09:53:19;2.10;;;1.90;;
9176;SDS011;4623;54.310;10.112;2022-09-12T09:55:46;1.95;;;1.85;;
9176;SDS011;4623;54.310;10.112;2022-09-12T09:58:26;1.60;;;1.50;;
9176;SDS011;4623;54.310;10.112;2022-09-12T10:00:59;3.20;;;2.10;;
9176;SDS011;4623;54.310;10.112;2022-09-12T10:03:31;2.40;;;1.73;;
9176;SDS011;4623;54.310;10.112;2022-09-12T10:06:06;2.72;;;2.05;;
9176;SDS011;4623;54.310;10.112;2022-09-12T10:08:45;2.20;;;2.00;;
9176;SDS011;4623;54.310;10.112;2022-09-12T10:13:42;2.90;;;2.70;;
9176;SDS011;4623;54.310;10.112;2022-09-12T10:16:24;2.50;;;2.30;;
9176;SDS011;4623;54.310;10.112;2022-09-12T10:18:52;2.10;;;1.90;;
9176;SDS011;4623;54.310;10.112;2022-09-12T10:23:58;2.22;;;2.03;;
9176;SDS011;4623;54.310;10.112;2022-09-12T10:26:40;3.40;;;3.10;;
9176;SDS011;4623;54.310;10.112;2022-09-12T10:29:21;3.00;;;2.80;;
9176;SDS011;4623;54.310;10.112;2022-09-12T10:31:54;7.75;;;2.80;;
9176;SDS011;4623;54.310;10.112;2022-09-12T10:34:26;2.38;;;2.17;;
9176;SDS011;4623;54.310;10.112;2022-09-12T10:37:04;2.80;;;2.60;;
9176;SDS011;4623;54.310;10.112;2022-09-12T10:39:32;2.80;;;2.60;;
9176;SDS011;4623;54.310;10.112;2022-09-12T10:42:00;2.75;;;2.35;;
9176;SDS011;4623;54.310;10.112;2022-09-12T10:44:29;2.45;;;2.22;;
9176;SDS011;4623;54.310;10.112;2022-09-12T10:46:56;2.50;;;2.25;;
9176;SDS011;4623;54.310;10.112;2022-09-12T10:49:29;3.53;;;2.10;;
9176;SDS011;4623;54.310;10.112;2022-09-12T10:52:15;1.60;;;1.50;;
9176;SDS011;4623;54.310;10.112;2022-09-12T10:54:47;3.08;;;2.63;;
9176;SDS011;4623;54.310;10.112;2022-09-12T11:11:22;2.13;;;1.88;;
9176;SDS011;4623;54.310;10.112;2022-09-12T11:19:32;1.50;;;1.40;;
9176;SDS011;4623;54.310;10.112;2022-09-12T11:22:31;4.88;;;1.75;;
9176;SDS011;4623;54.310;10.112;2022-09-12T11:30:28;2.13;;;1.90;;
9176;SDS011;4623;54.310;10.112;2022-09-12T11:33:13;3.42;;;2.15;;
9176;SDS011;4623;54.310;10.112;2022-09-12T11:36:03;2.67;;;1.70;;
9176;SDS011;4623;54.310;10.112;2022-09-12T11:38:46;1.98;;;1.88;;
9176;SDS011;4623;54.310;10.112;2022-09-12T11:41:24;3.03;;;2.20;;
9176;SDS011;4623;54.310;10.112;2022-09-12T11:43:57;2.53;;;2.33;;
9176;SDS011;4623;54.310;10.112;2022-09-12T11:46:38;2.20;;;1.85;;
9176;SDS011;4623;54.310;10.112;2022-09-12T11:54:35;2.15;;;1.95;;
9176;SDS011;4623;54.310;10.112;2022-09-12T11:59:53;1.70;;;1.60;;
9176;SDS011;4623;54.310;10.112;2022-09-12T12:02:23;1.80;;;1.70;;
9176;SDS011;4623;54.310;10.112;2022-09-12T12:07:42;2.45;;;2.25;;
9176;SDS011;4623;54.310;10.112;2022-09-12T12:10:22;1.70;;;1.60;;
9176;SDS011;4623;54.310;10.112;2022-09-12T12:15:52;2.40;;;2.20;;
9176;SDS011;4623;54.310;10.112;2022-09-12T12:18:22;2.05;;;1.92;;
9176;SDS011;4623;54.310;10.112;2022-09-12T12:20:50;2.33;;;2.10;;
9176;SDS011;4623;54.310;10.112;2022-09-12T12:24:19;2.10;;;1.85;;
9176;SDS011;4623;54.310;10.112;2022-09-12T12:29:09;2.28;;;2.08;;
9176;SDS011;4623;54.310;10.112;2022-09-12T12:32:41;2.42;;;2.22;;
9176;SDS011;4623;54.310;10.112;2022-09-12T12:34:44;3.05;;;2.20;;
9176;SDS011;4623;54.310;10.112;2022-09-12T12:44:59;2.67;;;2.30;;
9176;SDS011;4623;54.310;10.112;2022-09-12T12:47:48;3.92;;;2.72;;
9176;SDS011;4623;54.310;10.112;2022-09-12T12:50:26;2.40;;;2.20;;
9176;SDS011;4623;54.310;10.112;2022-09-12T12:53:04;2.10;;;1.80;;
9176;SDS011;4623;54.310;10.112;2022-09-12T12:58:07;2.85;;;2.65;;
9176;SDS011;4623;54.310;10.112;2022-09-12T13:00:59;2.47;;;2.22;;
9176;SDS011;4623;54.310;10.112;2022-09-12T13:03:33;5.63;;;2.45;;
9176;SDS011;4623;54.310;10.112;2022-09-12T13:06:04;1.75;;;1.58;;
9176;SDS011;4623;54.310;10.112;2022-09-12T13:08:37;3.47;;;1.63;;
9176;SDS011;4623;54.310;10.112;2022-09-12T13:11:26;1.60;;;1.50;;
9176;SDS011;4623;54.310;10.112;2022-09-12T13:14:03;1.55;;;1.45;;
9176;SDS011;4623;54.310;10.112;2022-09-12T13:16:37;3.72;;;3.40;;
9176;SDS011;4623;54.310;10.112;2022-09-12T13:19:11;2.22;;;1.90;;
9176;SDS011;4623;54.310;10.112;2022-09-12T13:21:53;2.90;;;2.20;;
9176;SDS011;4623;54.310;10.112;2022-09-12T13:24:24;4.65;;;3.22;;
9176;SDS011;4623;54.310;10.112;2022-09-12T13:26:49;2.35;;;2.15;;
9176;SDS011;4623;54.310;10.112;2022-09-12T13:29:19;3.25;;;2.95;;
9176;SDS011;4623;54.310;10.112;2022-09-12T13:31:47;1.77;;;1.67;;
9176;SDS011;4623;54.310;10.112;2022-09-12T13:34:31;1.67;;;1.52;;
9176;SDS011;4623;54.310;10.112;2022-09-12T13:37:08;1.80;;;1.50;;
9176;SDS011;4623;54.310;10.112;2022-09-12T13:39:46;3.17;;;2.10;;
9176;SDS011;4623;54.310;10.112;2022-09-12T13:42:33;2.00;;;1.83;;
9176;SDS011;4623;54.310;10.112;2022-09-12T13:45:20;1.67;;;1.58;;
9176;SDS011;4623;54.310;10.112;2022-09-12T13:47:49;1.50;;;1.40;;
9176;SDS011;4623;54.310;10.112;2022-09-12T13:52:57;2.42;;;2.22;;
9176;SDS011;4623;54.310;10.112;2022-09-12T13:57:57;2.05;;;1.85;;
9176;SDS011;4623;54.310;10.112;2022-09-12T14:00:28;2.35;;;2.08;;
9176;SDS011;4623;54.310;10.112;2022-09-12T14:02:56;2.80;;;2.00;;
9176;SDS011;4623;54.310;10.112;2022-09-12T14:05:41;2.15;;;1.80;;
9176;SDS011;4623;54.310;10.112;2022-09-12T14:08:10;1.75;;;1.58;;
9176;SDS011;4623;54.310;10.112;2022-09-12T14:10:40;1.38;;;1.20;;
9176;SDS011;4623;54.310;10.112;2022-09-12T14:13:20;2.35;;;2.15;;
9176;SDS011;4623;54.310;10.112;2022-09-12T14:15:49;2.72;;;2.47;;
9176;SDS011;4623;54.310;10.112;2022-09-12T14:18:25;3.10;;;2.60;;
9176;SDS011;4623;54.310;10.112;2022-09-12T14:20:52;2.63;;;2.30;;
9176;SDS011;4623;54.310;10.112;2022-09-12T14:23:28;2.10;;;1.90;;
9176;SDS011;4623;54.310;10.112;2022-09-12T14:25:56;2.17;;;1.98;;
9176;SDS011;4623;54.310;10.112;2022-09-12T14:28:26;2.95;;;1.92;;
9176;SDS011;4623;54.310;10.112;2022-09-12T14:33:22;3.63;;;2.40;;
9176;SDS011;4623;54.310;10.112;2022-09-12T14:35:49;1.85;;;1.75;;
9176;SDS011;4623;54.310;10.112;2022-09-12T14:38:34;2.45;;;2.03;;
9176;SDS011;4623;54.310;10.112;2022-09-12T14:41:05;3.00;;;2.55;;
9176;SDS011;4623;54.310;10.112;2022-09-12T14:43:37;3.08;;;2.15;;
9176;SDS011;4623;54.310;10.112;2022-09-12T14:46:13;2.33;;;2.10;;
9176;SDS011;4623;54.310;10.112;2022-09-12T14:48:51;2.17;;;1.85;;
9176;SDS011;4623;54.310;10.112;2022-09-12T14:51:37;2.00;;;1.90;;
9176;SDS011;4623;54.310;10.112;2022-09-12T15:02:39;2.53;;;2.05;;
9176;SDS011;4623;54.310;10.112;2022-09-12T15:07:44;2.85;;;1.80;;
9176;SDS011;4623;54.310;10.112;2022-09-12T15:10:19;1.85;;;1.63;;
9176;SDS011;4623;54.310;10.112;2022-09-12T15:15:34;7.35;;;2.03;;
9176;SDS011;4623;54.310;10.112;2022-09-12T15:18:00;2.05;;;1.85;;
9176;SDS011;4623;54.310;10.112;2022-09-12T15:20:26;2.72;;;2.28;;
9176;SDS011;4623;54.310;10.112;2022-09-12T15:22:52;2.25;;;1.75;;
9176;SDS011;4623;54.310;10.112;2022-09-12T15:25:18;1.60;;;1.50;;
9176;SDS011;4623;54.310;10.112;2022-09-12T15:27:44;1.55;;;1.45;;
9176;SDS011;4623;54.310;10.112;2022-09-12T15:30:11;2.22;;;1.50;;
9176;SDS011;4623;54.310;10.112;2022-09-12T15:32:38;2.25;;;2.03;;
9176;SDS011;4623;54.310;10.112;2022-09-12T15:35:16;2.20;;;1.70;;
9176;SDS011;4623;54.310;10.112;2022-09-12T15:37:43;2.15;;;1.90;;
9176;SDS011;4623;54.310;10.112;2022-09-12T15:40:12;1.67;;;1.58;;
9176;SDS011;4623;54.310;10.112;2022-09-12T15:42:38;1.45;;;1.35;;
9176;SDS011;4623;54.310;10.112;2022-09-12T15:45:13;1.83;;;1.73;;
9176;SDS011;4623;54.310;10.112;2022-09-12T15:47:44;2.00;;;1.70;;
9176;SDS011;4623;54.310;10.112;2022-09-12T15:50:10;1.60;;;1.40;;
9176;SDS011;4623;54.310;10.112;2022-09-12T15:52:35;4.03;;;1.45;;
9176;SDS011;4623;54.310;10.112;2022-09-12T15:55:02;1.63;;;1.52;;
9176;SDS011;4623;54.310;10.112;2022-09-12T15:57:28;2.78;;;1.63;;
9176;SDS011;4623;54.310;10.112;2022-09-12T15:59:53;3.90;;;1.73;;
9176;SDS011;4623;54.310;10.112;2022-09-12T16:02:19;2.72;;;2.10;;
9176;SDS011;4623;54.310;10.112;2022-09-12T16:04:45;2.25;;;2.05;;
9176;SDS011;4623;54.310;10.112;2022-09-12T16:07:12;1.65;;;1.42;;
9176;SDS011;4623;54.310;10.112;2022-09-12T16:09:37;2.45;;;2.03;;
9176;SDS011;4623;54.310;10.112;2022-09-12T16:12:03;2.22;;;1.67;;
9176;SDS011;4623;54.310;10.112;2022-09-12T16:14:29;2.30;;;1.83;;
9176;SDS011;4623;54.310;10.112;2022-09-12T16:16:55;1.90;;;1.73;;
9176;SDS011;4623;54.310;10.112;2022-09-12T16:19:20;2.90;;;1.60;;
9176;SDS011;4623;54.310;10.112;2022-09-12T16:21:48;1.50;;;1.40;;
9176;SDS011;4623;54.310;10.112;2022-09-12T16:24:14;1.75;;;1.65;;
9176;SDS011;4623;54.310;10.112;2022-09-12T16:26:39;1.98;;;1.80;;
9176;SDS011;4623;54.310;10.112;2022-09-12T16:29:05;2.55;;;1.70;;
9176;SDS011;4623;54.310;10.112;2022-09-12T16:31:31;2.05;;;1.73;;
9176;SDS011;4623;54.310;10.112;2022-09-12T16:33:56;1.55;;;1.45;;
9176;SDS011;4623;54.310;10.112;2022-09-12T16:36:22;1.95;;;1.75;;
9176;SDS011;4623;54.310;10.112;2022-09-12T16:38:49;1.70;;;1.60;;
9176;SDS011;4623;54.310;10.112;2022-09-12T16:41:16;1.80;;;1.70;;
9176;SDS011;4623;54.310;10.112;2022-09-12T16:43:43;1.88;;;1.77;;
9176;SDS011;4623;54.310;10.112;2022-09-12T16:46:11;2.22;;;1.75;;
9176;SDS011;4623;54.310;10.112;2022-09-12T16:48:42;2.10;;;1.90;;
9176;SDS011;4623;54.310;10.112;2022-09-12T16:51:09;2.15;;;1.80;;
9176;SDS011;4623;54.310;10.112;2022-09-12T16:53:35;2.10;;;1.90;;
9176;SDS011;4623;54.310;10.112;2022-09-12T16:56:03;1.92;;;1.80;;
9176;SDS011;4623;54.310;10.112;2022-09-12T16:58:33;2.15;;;1.95;;
9176;SDS011;4623;54.310;10.112;2022-09-12T17:03:27;2.30;;;2.10;;
9176;SDS011;4623;54.310;10.112;2022-09-12T17:05:57;1.48;;;1.30;;
9176;SDS011;4623;54.310;10.112;2022-09-12T17:08:24;2.22;;;1.90;;
9176;SDS011;4623;54.310;10.112;2022-09-12T17:10:49;3.53;;;1.50;;
9176;SDS011;4623;54.310;10.112;2022-09-12T17:13:15;2.85;;;2.08;;
9176;SDS011;4623;54.310;10.112;2022-09-12T17:15:41;2.35;;;1.88;;
9176;SDS011;4623;54.310;10.112;2022-09-12T17:18:06;1.90;;;1.75;;
9176;SDS011;4623;54.310;10.112;2022-09-12T17:20:34;1.83;;;1.63;;
9176;SDS011;4623;54.310;10.112;2022-09-12T17:23:00;1.90;;;1.80;;
9176;SDS011;4623;54.310;10.112;2022-09-12T17:25:25;2.08;;;1.88;;
9176;SDS011;4623;54.310;10.112;2022-09-12T17:27:51;2.20;;;2.00;;
9176;SDS011;4623;54.310;10.112;2022-09-12T17:30:17;1.85;;;1.75;;
9176;SDS011;4623;54.310;10.112;2022-09-12T17:32:43;2.35;;;1.90;;
9176;SDS011;4623;54.310;10.112;2022-09-12T17:35:08;2.33;;;1.90;;
9176;SDS011;4623;54.310;10.112;2022-09-12T17:37:35;2.15;;;1.95;;
9176;SDS011;4623;54.310;10.112;2022-09-12T17:40:01;1.90;;;1.80;;